createdAt,value
2022-12-22T00:01:56.655Z,7.30
2022-12-22T00:04:42.555Z,7.30
2022-12-22T00:07:27.940Z,7.40
2022-12-22T00:10:13.313Z,7.30
2022-12-22T00:12:58.737Z,7.40
2022-12-22T00:15:44.982Z,7.40
2022-12-22T00:18:34.371Z,7.40
2022-12-22T00:21:19.913Z,7.40
2022-12-22T00:24:05.442Z,7.50
2022-12-22T00:26:52.569Z,7.50
2022-12-22T00:29:38.167Z,7.50
2022-12-22T00:32:24.357Z,7.40
2022-12-22T00:35:10.500Z,7.50
2022-12-22T00:37:56.639Z,7.50
2022-12-22T00:40:45.692Z,7.50
2022-12-22T00:43:31.432Z,7.40
2022-12-22T00:46:19.646Z,7.40
2022-12-22T00:49:05.484Z,7.50
2022-12-22T00:51:51.560Z,7.40
2022-12-22T00:54:38.446Z,7.50
2022-12-22T00:57:23.850Z,7.50
2022-12-22T01:00:11.387Z,7.50
2022-12-22T01:02:57.134Z,7.50
2022-12-22T01:05:42.548Z,7.40
2022-12-22T01:08:29.336Z,7.60
2022-12-22T01:11:14.842Z,7.40
2022-12-22T01:14:00.446Z,7.50
2022-12-22T01:16:45.780Z,7.40
2022-12-22T01:19:31.515Z,7.50
2022-12-22T01:22:17.053Z,7.50
2022-12-22T01:25:03.892Z,7.50
2022-12-22T01:27:49.564Z,7.50
2022-12-22T01:30:34.868Z,7.50
2022-12-22T01:33:20.277Z,7.50
2022-12-22T01:36:05.818Z,7.50
2022-12-22T01:38:51.360Z,7.60
2022-12-22T01:41:39.217Z,7.60
2022-12-22T01:44:42.363Z,7.60
2022-12-22T01:47:46.179Z,7.60
2022-12-22T01:50:41.258Z,7.60
2022-12-22T01:53:33.433Z,7.60
2022-12-22T01:56:20.030Z,7.70
2022-12-22T01:59:10.840Z,7.60
2022-12-22T02:01:57.688Z,7.70
2022-12-22T02:04:46.072Z,7.60
2022-12-22T02:07:47.033Z,7.60
2022-12-22T02:10:41.792Z,7.60
2022-12-22T02:13:36.832Z,7.60
2022-12-22T02:16:49.943Z,7.50
2022-12-22T02:19:58.872Z,7.50
2022-12-22T02:23:34.306Z,7.50
2022-12-22T02:26:41.408Z,7.60
2022-12-22T02:29:27.810Z,7.70
2022-12-22T02:32:13.447Z,7.70
2022-12-22T02:34:58.912Z,7.60
2022-12-22T02:37:48.059Z,7.60
2022-12-22T02:40:54.945Z,7.70
2022-12-22T02:44:12.232Z,7.60
2022-12-22T02:47:19.742Z,7.60
2022-12-22T02:50:19.194Z,7.60
2022-12-22T02:53:06.654Z,7.60
2022-12-22T02:55:52.676Z,7.60
2022-12-22T02:58:38.345Z,7.60
2022-12-22T03:01:25.089Z,7.70
2022-12-22T03:04:10.545Z,7.70
2022-12-22T03:06:56.143Z,7.60
2022-12-22T03:09:41.483Z,7.60
2022-12-22T03:12:27.116Z,7.60
2022-12-22T03:15:12.616Z,7.50
2022-12-22T03:17:57.904Z,7.60
2022-12-22T03:20:43.360Z,7.60
2022-12-22T03:23:28.951Z,7.70
2022-12-22T03:25:55.899Z,7.70
2022-12-22T03:28:25.952Z,7.60
2022-12-22T03:30:58.342Z,7.70
2022-12-22T03:33:25.615Z,7.60
2022-12-22T03:35:53.014Z,7.60
2022-12-22T03:38:20.508Z,7.70
2022-12-22T03:40:47.667Z,7.60
2022-12-22T03:43:34.994Z,7.60
2022-12-22T03:46:20.974Z,7.70
2022-12-22T03:49:07.871Z,7.70
2022-12-22T03:51:35.633Z,7.60
2022-12-22T03:54:02.446Z,7.60
2022-12-22T03:56:29.648Z,7.60
2022-12-22T03:58:56.646Z,7.70
2022-12-22T04:01:23.765Z,7.70
2022-12-22T04:03:50.766Z,7.70
2022-12-22T04:06:18.165Z,7.70
2022-12-22T04:08:45.423Z,7.70
2022-12-22T04:11:31.639Z,7.70
2022-12-22T04:13:58.575Z,7.80
2022-12-22T04:16:25.619Z,7.70
2022-12-22T04:18:52.833Z,7.70
2022-12-22T04:21:19.830Z,7.70
2022-12-22T04:23:46.619Z,7.70
2022-12-22T04:26:13.376Z,7.80
2022-12-22T04:28:40.212Z,7.70
2022-12-22T04:31:07.082Z,7.60
2022-12-22T04:33:33.916Z,7.70
2022-12-22T04:36:00.702Z,7.70
2022-12-22T04:38:27.531Z,7.70
2022-12-22T04:40:54.286Z,7.90
2022-12-22T04:43:21.306Z,7.70
2022-12-22T04:45:51.935Z,7.70
2022-12-22T04:48:18.948Z,7.70
2022-12-22T04:50:45.950Z,7.70
2022-12-22T04:53:13.192Z,7.90
2022-12-22T04:55:46.142Z,7.80
2022-12-22T04:58:12.962Z,7.80
2022-12-22T05:00:39.786Z,7.90
2022-12-22T05:03:07.431Z,7.70
2022-12-22T05:05:35.296Z,7.70
2022-12-22T05:08:02.968Z,7.70
2022-12-22T05:10:30.670Z,7.70
2022-12-22T05:12:57.620Z,7.70
2022-12-22T05:15:33.295Z,7.70
2022-12-22T05:18:01.205Z,7.80
2022-12-22T05:20:28.746Z,7.80
2022-12-22T05:22:56.400Z,7.80
2022-12-22T05:25:23.481Z,7.80
2022-12-22T05:27:51.419Z,7.80
2022-12-22T05:30:19.229Z,7.80
2022-12-22T05:32:46.288Z,7.80
2022-12-22T05:35:13.524Z,7.80
2022-12-22T05:37:40.476Z,7.80
2022-12-22T05:40:08.432Z,7.80
2022-12-22T05:42:37.938Z,7.70
2022-12-22T05:45:13.398Z,7.70
2022-12-22T05:47:40.285Z,7.80
2022-12-22T05:50:08.311Z,7.80
2022-12-22T05:52:35.286Z,7.80
2022-12-22T05:55:02.437Z,7.80
2022-12-22T05:57:29.240Z,7.80
2022-12-22T05:59:56.224Z,7.80
2022-12-22T06:02:23.590Z,7.70
2022-12-22T06:04:50.682Z,7.70
2022-12-22T06:07:17.673Z,7.70
2022-12-22T06:09:44.539Z,7.70
2022-12-22T06:12:11.457Z,7.70
2022-12-22T06:14:38.331Z,7.80
2022-12-22T06:17:05.148Z,7.80
2022-12-22T06:19:32.021Z,7.70
2022-12-22T06:21:58.886Z,7.70
2022-12-22T06:24:25.723Z,7.80
2022-12-22T06:26:52.685Z,7.80
2022-12-22T06:29:19.556Z,7.70
2022-12-22T06:31:46.388Z,7.70
2022-12-22T06:34:13.546Z,7.80
2022-12-22T06:36:40.510Z,7.80
2022-12-22T06:39:07.646Z,7.80
2022-12-22T06:41:54.724Z,7.80
2022-12-22T06:44:21.559Z,7.90
2022-12-22T06:46:48.379Z,7.80
2022-12-22T06:49:15.310Z,7.80
2022-12-22T06:51:42.177Z,7.90
2022-12-22T06:54:09.183Z,7.80
2022-12-22T06:56:36.064Z,7.80
2022-12-22T06:59:03.510Z,7.70
2022-12-22T07:01:30.501Z,7.70
2022-12-22T07:03:57.495Z,7.70
2022-12-22T07:06:24.450Z,7.70
2022-12-22T07:08:51.333Z,7.60
2022-12-22T07:11:18.341Z,7.60
2022-12-22T07:13:45.272Z,7.70
2022-12-22T07:16:12.407Z,7.70
2022-12-22T07:18:42.070Z,7.70
2022-12-22T07:21:13.854Z,7.70
2022-12-22T07:23:41.289Z,7.70
2022-12-22T07:26:09.065Z,7.60
2022-12-22T07:28:37.789Z,7.70
2022-12-22T07:31:23.608Z,7.70
2022-12-22T07:33:50.577Z,7.70
2022-12-22T07:36:19.960Z,7.70
2022-12-22T07:38:49.238Z,7.70
2022-12-22T07:41:36.905Z,7.70
2022-12-22T07:44:04.681Z,7.80
2022-12-22T07:46:34.522Z,7.80
2022-12-22T07:49:20.678Z,7.80
2022-12-22T07:51:47.529Z,7.80
2022-12-22T07:54:16.047Z,7.90
2022-12-22T07:56:44.523Z,7.80
2022-12-22T07:59:11.567Z,7.80
2022-12-22T08:01:38.742Z,7.80
2022-12-22T08:04:05.727Z,7.90
2022-12-22T08:06:34.198Z,7.90
2022-12-22T08:09:01.775Z,7.80
2022-12-22T08:11:28.736Z,7.80
2022-12-22T08:14:01.033Z,7.70
2022-12-22T08:16:28.927Z,7.80
2022-12-22T08:18:56.079Z,7.80
2022-12-22T08:21:22.939Z,7.80
2022-12-22T08:23:49.919Z,7.80
2022-12-22T08:26:28.440Z,7.90
2022-12-22T08:29:12.237Z,7.90
2022-12-22T08:31:40.610Z,7.80
2022-12-22T08:34:12.650Z,7.80
2022-12-22T08:36:44.370Z,7.80
2022-12-22T08:39:12.064Z,7.80
2022-12-22T08:41:51.579Z,7.80
2022-12-22T08:44:23.430Z,7.80
2022-12-22T08:46:51.980Z,7.80
2022-12-22T08:49:19.515Z,7.80
2022-12-22T08:51:47.281Z,7.80
2022-12-22T08:54:14.712Z,7.80
2022-12-22T08:56:41.582Z,7.80
2022-12-22T08:59:09.225Z,7.80
2022-12-22T09:01:38.513Z,7.80
2022-12-22T09:04:07.013Z,7.80
2022-12-22T09:06:40.421Z,7.80
2022-12-22T09:09:10.388Z,7.90
2022-12-22T09:11:37.954Z,7.90
2022-12-22T09:14:05.279Z,7.90
2022-12-22T09:16:33.995Z,8.00
2022-12-22T09:19:02.090Z,8.00
2022-12-22T09:21:30.532Z,8.00
2022-12-22T09:23:58.301Z,8.00
2022-12-22T09:26:27.015Z,8.00
2022-12-22T09:28:55.361Z,8.00
2022-12-22T09:31:24.140Z,8.10
2022-12-22T09:33:51.325Z,8.10
2022-12-22T09:36:22.330Z,8.20
2022-12-22T09:38:49.462Z,8.20
2022-12-22T09:41:37.434Z,8.30
2022-12-22T09:44:25.684Z,8.20
2022-12-22T09:46:57.631Z,8.30
2022-12-22T09:49:24.731Z,8.40
2022-12-22T09:51:56.048Z,8.50
2022-12-22T09:54:23.609Z,8.50
2022-12-22T09:56:50.402Z,8.60
2022-12-22T09:59:19.933Z,8.50
2022-12-22T10:02:07.887Z,8.60
2022-12-22T10:04:43.777Z,8.60
2022-12-22T10:07:37.024Z,8.50
2022-12-22T10:10:24.953Z,8.60
2022-12-22T10:12:56.090Z,8.50
2022-12-22T10:15:24.200Z,8.50
2022-12-22T10:17:52.725Z,8.60
2022-12-22T10:20:20.834Z,8.60
2022-12-22T10:22:59.811Z,8.60
2022-12-22T10:25:39.865Z,8.70
2022-12-22T10:28:23.733Z,8.70
2022-12-22T10:31:08.734Z,8.70
2022-12-22T10:33:37.800Z,8.60
2022-12-22T10:36:09.373Z,8.60
2022-12-22T10:38:39.321Z,8.70
2022-12-22T10:41:16.482Z,8.60
2022-12-22T10:43:52.665Z,8.60
2022-12-22T10:46:42.868Z,8.50
2022-12-22T10:49:23.837Z,8.50
2022-12-22T10:52:29.924Z,8.50
2022-12-22T10:55:25.850Z,8.50
2022-12-22T10:58:06.160Z,8.50
2022-12-22T11:00:33.277Z,8.50
2022-12-22T11:03:02.268Z,8.40
2022-12-22T11:05:29.661Z,8.40
2022-12-22T11:07:57.537Z,8.50
2022-12-22T11:10:31.893Z,8.60
2022-12-22T11:13:05.083Z,8.70
2022-12-22T11:15:43.987Z,8.80
2022-12-22T11:18:32.245Z,9.00
2022-12-22T11:21:24.534Z,9.00
2022-12-22T11:24:25.164Z,9.10
2022-12-22T11:27:06.048Z,9.10
2022-12-22T11:29:59.621Z,9.20
2022-12-22T11:32:54.015Z,9.10
2022-12-22T11:35:29.850Z,9.10
2022-12-22T11:38:22.725Z,9.10
2022-12-22T11:41:00.600Z,8.90
2022-12-22T11:43:54.976Z,8.90
2022-12-22T11:46:31.847Z,8.90
2022-12-22T11:49:29.588Z,8.80
2022-12-22T11:52:02.473Z,8.80
2022-12-22T11:54:50.303Z,8.60
2022-12-22T11:57:51.677Z,8.50
2022-12-22T12:00:19.497Z,8.30
2022-12-22T12:02:58.414Z,8.20
2022-12-22T12:06:06.863Z,8.20
2022-12-22T12:09:00.051Z,8.30
2022-12-22T12:11:47.071Z,8.40
2022-12-22T12:14:13.848Z,8.40
2022-12-22T12:16:58.777Z,8.40
2022-12-22T12:19:28.966Z,8.40
2022-12-22T12:22:05.198Z,8.40
2022-12-22T12:24:46.761Z,8.40
2022-12-22T12:27:13.498Z,8.30
2022-12-22T12:30:36.138Z,8.30
2022-12-22T12:33:03.097Z,8.30
2022-12-22T12:35:48.694Z,8.30
2022-12-22T12:39:07.602Z,8.30
2022-12-22T12:41:32.009Z,8.30
2022-12-22T12:44:00.268Z,8.30
2022-12-22T12:46:56.330Z,8.30
2022-12-22T12:49:35.520Z,8.20
2022-12-22T12:52:06.805Z,8.20
2022-12-22T12:54:35.552Z,8.20
2022-12-22T12:57:02.346Z,8.10
2022-12-22T12:59:59.233Z,8.20
2022-12-22T13:02:32.535Z,8.10
2022-12-22T13:05:08.290Z,8.10
2022-12-22T13:08:06.564Z,8.00
2022-12-22T13:10:43.009Z,8.00
2022-12-22T13:13:14.084Z,8.00
2022-12-22T13:15:42.927Z,7.90
2022-12-22T13:18:49.840Z,8.00
2022-12-22T13:21:52.195Z,7.90
2022-12-22T13:24:28.641Z,7.90
2022-12-22T13:27:03.523Z,7.90
2022-12-22T13:29:43.842Z,7.70
2022-12-22T13:32:19.281Z,7.80
2022-12-22T13:37:57.481Z,7.80
2022-12-22T13:40:39.579Z,7.80
2022-12-22T13:43:14.376Z,7.70
2022-12-22T13:45:44.502Z,7.80
2022-12-22T13:48:14.434Z,7.70
2022-12-22T13:50:56.665Z,7.80
2022-12-22T13:56:48.358Z,7.60
2022-12-22T13:59:36.050Z,7.80
2022-12-22T14:02:07.735Z,7.80
2022-12-22T14:04:36.817Z,7.70
2022-12-22T14:07:20.413Z,7.70
2022-12-22T14:09:54.830Z,7.70
2022-12-22T14:12:27.840Z,7.60
2022-12-22T14:14:56.619Z,7.60
2022-12-22T14:17:32.944Z,7.50
2022-12-22T14:20:26.273Z,7.60
2022-12-22T14:23:02.496Z,7.40
2022-12-22T14:25:38.989Z,7.50
2022-12-22T14:28:12.014Z,7.30
2022-12-22T14:30:43.257Z,7.30
2022-12-22T14:33:28.262Z,7.30
2022-12-22T14:36:17.737Z,7.30
2022-12-22T14:38:50.216Z,7.40
2022-12-22T14:41:43.072Z,7.30
2022-12-22T14:44:43.271Z,7.20
2022-12-22T14:47:14.934Z,7.20
2022-12-22T14:49:57.986Z,7.20
2022-12-22T14:52:41.779Z,7.30
2022-12-22T14:55:34.130Z,7.40
2022-12-22T14:58:05.983Z,7.40
2022-12-22T15:00:42.261Z,7.30
2022-12-22T15:03:28.506Z,7.30
2022-12-22T15:05:55.622Z,7.30
2022-12-22T15:08:43.518Z,7.30
2022-12-22T15:11:15.575Z,7.30
2022-12-22T15:13:47.306Z,7.30
2022-12-22T15:16:17.367Z,7.30
2022-12-22T15:18:44.660Z,7.40
2022-12-22T15:21:13.800Z,7.40
2022-12-22T15:23:43.787Z,7.30
2022-12-22T15:26:10.773Z,7.40
2022-12-22T15:28:40.064Z,7.30
2022-12-22T15:31:14.166Z,7.30
2022-12-22T15:33:41.481Z,7.20
2022-12-22T15:36:15.257Z,7.20
2022-12-22T15:38:47.079Z,7.20
2022-12-22T15:41:13.869Z,7.30
2022-12-22T15:43:59.455Z,7.40
2022-12-22T15:46:26.853Z,7.20
2022-12-22T15:48:53.787Z,7.30
2022-12-22T15:51:30.597Z,7.20
2022-12-22T15:53:58.490Z,7.20
2022-12-22T15:56:27.620Z,7.20
2022-12-22T15:58:55.689Z,7.30
2022-12-22T16:01:22.547Z,7.30
2022-12-22T16:03:49.433Z,7.30
2022-12-22T16:06:19.059Z,7.30
2022-12-22T16:08:49.928Z,7.40
2022-12-22T16:11:17.795Z,7.40
2022-12-22T16:13:45.227Z,7.40
2022-12-22T16:16:12.203Z,7.40
2022-12-22T16:18:39.160Z,7.40
2022-12-22T16:21:11.972Z,7.40
2022-12-22T16:23:41.385Z,7.40
2022-12-22T16:26:08.724Z,7.40
2022-12-22T16:28:35.560Z,7.40
2022-12-22T16:31:02.475Z,7.40
2022-12-22T16:33:29.343Z,7.50
2022-12-22T16:35:56.210Z,7.50
2022-12-22T16:38:23.090Z,7.50
2022-12-22T16:40:52.737Z,7.50
2022-12-22T16:46:16.284Z,7.40
2022-12-22T16:48:47.799Z,7.50
2022-12-22T16:51:28.074Z,7.50
2022-12-22T16:53:54.908Z,7.40
2022-12-22T16:56:24.852Z,7.50
2022-12-22T16:58:51.741Z,7.50
2022-12-22T17:01:40.955Z,7.50
2022-12-22T17:04:16.895Z,7.40
2022-12-22T17:06:46.321Z,7.50
2022-12-22T17:09:18.625Z,7.50
2022-12-22T17:11:47.159Z,7.60
2022-12-22T17:14:27.123Z,7.50
2022-12-22T17:16:54.104Z,7.50
2022-12-22T17:19:20.959Z,7.50
2022-12-22T17:21:48.393Z,7.60
2022-12-22T17:24:18.798Z,7.60
2022-12-22T17:26:48.574Z,7.50
2022-12-22T17:29:23.567Z,7.60
2022-12-22T17:31:51.090Z,7.60
2022-12-22T17:34:19.568Z,7.60
2022-12-22T17:36:49.213Z,7.50
2022-12-22T17:39:19.865Z,7.50
2022-12-22T17:41:52.293Z,7.50
2022-12-22T17:44:25.084Z,7.40
2022-12-22T17:46:52.150Z,7.50
2022-12-22T17:49:22.067Z,7.50
2022-12-22T17:51:49.683Z,7.50
2022-12-22T17:54:25.426Z,7.50
2022-12-22T17:56:59.739Z,7.50
2022-12-22T17:59:26.572Z,7.50
2022-12-22T18:01:53.568Z,7.50
2022-12-22T18:04:20.490Z,7.50
2022-12-22T18:06:47.873Z,7.50
2022-12-22T18:09:26.217Z,7.50
2022-12-22T18:11:53.851Z,7.50
2022-12-22T18:14:22.149Z,7.60
2022-12-22T18:16:49.180Z,7.60
2022-12-22T18:19:16.143Z,7.60
2022-12-22T18:21:43.914Z,7.60
2022-12-22T18:24:18.910Z,7.50
2022-12-22T18:26:47.090Z,7.70
2022-12-22T18:29:18.200Z,7.60
2022-12-22T18:31:45.460Z,7.60
2022-12-22T18:34:12.775Z,7.60
2022-12-22T18:36:42.377Z,7.50
2022-12-22T18:39:17.542Z,7.50
2022-12-22T18:41:44.836Z,7.40
2022-12-22T18:44:19.164Z,7.50
2022-12-22T18:46:47.259Z,7.60
2022-12-22T18:49:16.113Z,7.60
2022-12-22T18:51:44.813Z,7.50
2022-12-22T18:54:38.175Z,7.60
2022-12-22T18:57:15.116Z,7.60
2022-12-22T18:59:42.454Z,7.60
2022-12-22T19:02:32.067Z,7.60
2022-12-22T19:04:58.917Z,7.60
2022-12-22T19:07:26.089Z,7.50
2022-12-22T19:09:53.167Z,7.60
2022-12-22T19:12:25.450Z,7.60
2022-12-22T19:14:57.321Z,7.50
2022-12-22T19:17:27.255Z,7.50
2022-12-22T19:19:54.405Z,7.50
2022-12-22T19:22:24.201Z,7.40
2022-12-22T19:24:51.628Z,7.40
2022-12-22T19:27:27.252Z,7.40
2022-12-22T19:30:03.990Z,7.40
2022-12-22T19:32:38.468Z,7.30
2022-12-22T19:35:12.731Z,7.30
2022-12-22T19:37:44.239Z,7.20
2022-12-22T19:40:16.825Z,7.20
2022-12-22T19:42:48.770Z,7.30
2022-12-22T19:45:22.437Z,7.20
2022-12-22T19:47:52.019Z,7.20
2022-12-22T19:50:25.294Z,7.20
2022-12-22T19:52:53.533Z,7.30
2022-12-22T19:55:21.815Z,7.30
2022-12-22T19:57:51.816Z,7.20
2022-12-22T20:00:22.799Z,7.10
2022-12-22T20:02:52.800Z,7.00
2022-12-22T20:05:22.418Z,6.90
2022-12-22T20:07:54.124Z,7.00
2022-12-22T20:10:22.176Z,7.00
2022-12-22T20:12:52.047Z,6.90
2022-12-22T20:15:24.717Z,6.80
2022-12-22T20:17:52.974Z,6.90
2022-12-22T20:20:26.214Z,6.80
2022-12-22T20:22:56.753Z,6.70
2022-12-22T20:25:26.642Z,6.70
2022-12-22T20:27:57.150Z,6.80
2022-12-22T20:30:29.940Z,6.70
2022-12-22T20:33:01.847Z,6.70
2022-12-22T20:35:28.836Z,6.70
2022-12-22T20:37:55.715Z,6.60
2022-12-22T20:40:31.049Z,6.50
2022-12-22T20:42:58.507Z,6.60
2022-12-22T20:45:29.511Z,6.60
2022-12-22T20:47:58.282Z,6.60
2022-12-22T20:50:28.089Z,6.60
2022-12-22T20:52:57.840Z,6.70
2022-12-22T20:55:29.354Z,6.70
2022-12-22T20:57:56.239Z,6.70
2022-12-22T21:00:32.947Z,6.70
2022-12-22T21:02:59.916Z,6.70
2022-12-22T21:05:26.839Z,6.70
2022-12-22T21:07:53.697Z,6.70
2022-12-22T21:10:23.236Z,6.80
2022-12-22T21:12:50.725Z,6.70
2022-12-22T21:15:23.984Z,6.80
2022-12-22T21:17:58.121Z,6.80
2022-12-22T21:20:27.719Z,6.80
2022-12-22T21:22:54.863Z,6.70
2022-12-22T21:25:22.455Z,6.80
2022-12-22T21:27:51.258Z,6.80
2022-12-22T21:30:23.142Z,6.90
2022-12-22T21:32:51.129Z,6.80
2022-12-22T21:35:21.280Z,6.80
2022-12-22T21:37:49.874Z,6.90
2022-12-22T21:40:20.031Z,6.80
2022-12-22T21:42:49.713Z,6.90
2022-12-22T21:45:21.884Z,6.80
2022-12-22T21:47:49.586Z,6.90
2022-12-22T21:50:28.280Z,7.00
2022-12-22T21:52:55.288Z,7.00
2022-12-22T21:55:27.156Z,7.00
2022-12-22T21:57:54.327Z,7.00
2022-12-22T22:00:22.558Z,6.90
2022-12-22T22:02:50.918Z,7.00
2022-12-22T22:05:23.998Z,7.00
2022-12-22T22:07:51.114Z,7.00
2022-12-22T22:10:20.603Z,7.00
2022-12-22T22:12:47.602Z,7.10
2022-12-22T22:15:15.625Z,7.00
2022-12-22T22:17:43.528Z,7.00
2022-12-22T22:20:17.726Z,7.00
2022-12-22T22:22:45.754Z,7.00
2022-12-22T22:25:14.050Z,6.90
2022-12-22T22:27:47.373Z,6.90
2022-12-22T22:30:25.240Z,7.00
2022-12-22T22:32:52.697Z,7.00
2022-12-22T22:35:20.172Z,7.00
2022-12-22T22:37:50.647Z,6.90
2022-12-22T22:40:20.460Z,6.90
2022-12-22T22:42:47.743Z,6.90
2022-12-22T22:45:16.751Z,6.90
2022-12-22T22:47:43.605Z,7.00
2022-12-22T22:50:10.539Z,6.90
2022-12-22T22:52:37.506Z,7.00
2022-12-22T22:55:04.698Z,6.90
2022-12-22T22:57:31.555Z,6.90
2022-12-22T22:59:58.447Z,6.80
2022-12-22T23:02:25.490Z,6.90
2022-12-22T23:04:52.488Z,6.80
2022-12-22T23:07:19.359Z,6.80
2022-12-22T23:09:46.192Z,6.80
2022-12-22T23:12:13.239Z,6.70
2022-12-22T23:14:40.144Z,6.80
2022-12-22T23:17:07.082Z,6.80
2022-12-22T23:19:34.015Z,6.70
2022-12-22T23:22:00.964Z,6.80
2022-12-22T23:24:27.805Z,6.80
2022-12-22T23:26:54.624Z,6.80
2022-12-22T23:29:21.472Z,6.80
2022-12-22T23:31:48.364Z,6.80
2022-12-22T23:34:15.324Z,6.70
2022-12-22T23:36:42.142Z,6.70
2022-12-22T23:39:09.302Z,6.80
2022-12-22T23:41:36.136Z,6.90
2022-12-22T23:44:03.091Z,6.70
2022-12-22T23:46:30.057Z,6.70
2022-12-22T23:48:58.331Z,6.70
2022-12-22T23:51:27.539Z,6.70
2022-12-22T23:53:55.899Z,6.70
2022-12-22T23:56:22.898Z,6.70
2022-12-22T23:58:54.406Z,6.70
